sensor_id;sensor_type;location;lat;lon;timestamp;P1;durP1;ratioP1;P2;durP2;ratioP2
65234;SDS011;51820;48.374;10.930;2024-01-10T00:00:29;26.27;;;10.05;;
65234;SDS011;51820;48.374;10.930;2024-01-10T00:03:08;27.55;;;11.07;;
65234;SDS011;51820;48.374;10.930;2024-01-10T00:12:51;23.37;;;10.17;;
65234;SDS011;51820;48.374;10.930;2024-01-10T00:15:19;33.72;;;12.23;;
65234;SDS011;51820;48.374;10.930;2024-01-10T00:17:48;41.95;;;13.98;;
65234;SDS011;51820;48.374;10.930;2024-01-10T00:20:20;42.58;;;13.05;;
65234;SDS011;51820;48.374;10.930;2024-01-10T00:22:49;45.35;;;14.30;;
65234;SDS011;51820;48.374;10.930;2024-01-10T00:28:04;46.20;;;15.75;;
65234;SDS011;51820;48.374;10.930;2024-01-10T00:30:42;37.97;;;14.23;;
65234;SDS011;51820;48.374;10.930;2024-01-10T00:33:11;33.55;;;12.57;;
65234;SDS011;51820;48.374;10.930;2024-01-10T00:41:47;30.67;;;12.02;;
65234;SDS011;51820;48.374;10.930;2024-01-10T00:44:17;30.85;;;13.35;;
65234;SDS011;51820;48.374;10.930;2024-01-10T00:47:06;30.45;;;12.65;;
65234;SDS011;51820;48.374;10.930;2024-01-10T00:53:19;38.20;;;13.63;;
65234;SDS011;51820;48.374;10.930;2024-01-10T00:56:14;32.58;;;13.15;;
65234;SDS011;51820;48.374;10.930;2024-01-10T00:58:50;34.47;;;13.27;;
65234;SDS011;51820;48.374;10.930;2024-01-10T01:01:40;32.75;;;13.52;;
65234;SDS011;51820;48.374;10.930;2024-01-10T01:04:12;27.83;;;11.48;;
65234;SDS011;51820;48.374;10.930;2024-01-10T01:06:46;32.30;;;11.27;;
65234;SDS011;51820;48.374;10.930;2024-01-10T01:09:16;36.58;;;13.55;;
65234;SDS011;51820;48.374;10.930;2024-01-10T01:11:51;31.58;;;12.10;;
65234;SDS011;51820;48.374;10.930;2024-01-10T01:14:23;31.05;;;11.07;;
65234;SDS011;51820;48.374;10.930;2024-01-10T01:16:51;28.63;;;11.25;;
65234;SDS011;51820;48.374;10.930;2024-01-10T01:19:28;27.60;;;11.73;;
65234;SDS011;51820;48.374;10.930;2024-01-10T01:21:59;32.42;;;12.70;;
65234;SDS011;51820;48.374;10.930;2024-01-10T01:24:28;35.38;;;12.85;;
65234;SDS011;51820;48.374;10.930;2024-01-10T01:26:59;30.70;;;12.45;;
65234;SDS011;51820;48.374;10.930;2024-01-10T01:29:29;30.65;;;12.15;;
65234;SDS011;51820;48.374;10.930;2024-01-10T01:31:58;35.77;;;13.00;;
65234;SDS011;51820;48.374;10.930;2024-01-10T01:34:26;30.98;;;12.38;;
65234;SDS011;51820;48.374;10.930;2024-01-10T01:36:55;30.35;;;11.57;;
65234;SDS011;51820;48.374;10.930;2024-01-10T01:39:40;41.08;;;12.85;;
65234;SDS011;51820;48.374;10.930;2024-01-10T01:42:24;35.13;;;13.45;;
65234;SDS011;51820;48.374;10.930;2024-01-10T01:45:23;30.23;;;12.87;;
65234;SDS011;51820;48.374;10.930;2024-01-10T01:47:46;33.45;;;12.73;;
65234;SDS011;51820;48.374;10.930;2024-01-10T01:50:15;42.22;;;14.23;;
65234;SDS011;51820;48.374;10.930;2024-01-10T01:53:12;33.55;;;12.93;;
65234;SDS011;51820;48.374;10.930;2024-01-10T01:58:40;28.60;;;12.90;;
65234;SDS011;51820;48.374;10.930;2024-01-10T02:01:40;32.65;;;12.70;;
65234;SDS011;51820;48.374;10.930;2024-01-10T02:04:10;28.08;;;12.45;;
65234;SDS011;51820;48.374;10.930;2024-01-10T02:06:39;33.30;;;12.18;;
65234;SDS011;51820;48.374;10.930;2024-01-10T02:09:11;39.42;;;13.18;;
65234;SDS011;51820;48.374;10.930;2024-01-10T02:11:40;32.13;;;12.63;;
65234;SDS011;51820;48.374;10.930;2024-01-10T02:14:10;32.35;;;12.73;;
65234;SDS011;51820;48.374;10.930;2024-01-10T02:16:52;36.22;;;13.73;;
65234;SDS011;51820;48.374;10.930;2024-01-10T02:22:36;29.92;;;12.93;;
65234;SDS011;51820;48.374;10.930;2024-01-10T02:25:07;33.00;;;12.37;;
65234;SDS011;51820;48.374;10.930;2024-01-10T02:30:40;31.52;;;13.57;;
65234;SDS011;51820;48.374;10.930;2024-01-10T02:33:28;36.33;;;12.85;;
65234;SDS011;51820;48.374;10.930;2024-01-10T02:36:00;28.83;;;12.52;;
65234;SDS011;51820;48.374;10.930;2024-01-10T02:38:31;31.17;;;12.00;;
65234;SDS011;51820;48.374;10.930;2024-01-10T02:41:02;30.48;;;11.88;;
65234;SDS011;51820;48.374;10.930;2024-01-10T02:43:46;30.60;;;12.68;;
65234;SDS011;51820;48.374;10.930;2024-01-10T02:46:14;27.25;;;12.52;;
65234;SDS011;51820;48.374;10.930;2024-01-10T02:49:11;36.83;;;14.98;;
65234;SDS011;51820;48.374;10.930;2024-01-10T02:51:40;34.37;;;15.27;;
65234;SDS011;51820;48.374;10.930;2024-01-10T02:54:32;40.53;;;14.88;;
65234;SDS011;51820;48.374;10.930;2024-01-10T03:00:29;42.58;;;14.98;;
65234;SDS011;51820;48.374;10.930;2024-01-10T03:06:29;36.70;;;13.97;;
65234;SDS011;51820;48.374;10.930;2024-01-10T03:09:12;38.42;;;14.88;;
65234;SDS011;51820;48.374;10.930;2024-01-10T03:11:57;31.70;;;13.55;;
65234;SDS011;51820;48.374;10.930;2024-01-10T03:14:28;37.88;;;14.32;;
65234;SDS011;51820;48.374;10.930;2024-01-10T03:16:56;39.25;;;14.50;;
65234;SDS011;51820;48.374;10.930;2024-01-10T03:19:45;30.47;;;11.93;;
65234;SDS011;51820;48.374;10.930;2024-01-10T03:22:21;37.47;;;14.88;;
65234;SDS011;51820;48.374;10.930;2024-01-10T03:24:55;41.85;;;14.73;;
65234;SDS011;51820;48.374;10.930;2024-01-10T03:27:53;29.80;;;13.45;;
65234;SDS011;51820;48.374;10.930;2024-01-10T03:30:27;36.25;;;13.65;;
65234;SDS011;51820;48.374;10.930;2024-01-10T03:33:29;33.27;;;12.93;;
65234;SDS011;51820;48.374;10.930;2024-01-10T03:36:23;28.85;;;13.07;;
65234;SDS011;51820;48.374;10.930;2024-01-10T03:38:59;37.65;;;13.98;;
65234;SDS011;51820;48.374;10.930;2024-01-10T03:41:30;28.95;;;12.65;;
65234;SDS011;51820;48.374;10.930;2024-01-10T03:43:58;38.88;;;13.90;;
65234;SDS011;51820;48.374;10.930;2024-01-10T03:46:31;34.80;;;14.57;;
65234;SDS011;51820;48.374;10.930;2024-01-10T03:49:34;36.72;;;13.32;;
65234;SDS011;51820;48.374;10.930;2024-01-10T03:52:13;38.20;;;15.27;;
65234;SDS011;51820;48.374;10.930;2024-01-10T03:55:00;29.63;;;12.32;;
65234;SDS011;51820;48.374;10.930;2024-01-10T03:57:34;34.05;;;13.48;;
65234;SDS011;51820;48.374;10.930;2024-01-10T04:00:32;31.13;;;12.23;;
65234;SDS011;51820;48.374;10.930;2024-01-10T04:03:05;41.58;;;14.25;;
65234;SDS011;51820;48.374;10.930;2024-01-10T04:05:33;34.00;;;14.30;;
65234;SDS011;51820;48.374;10.930;2024-01-10T04:08:05;36.83;;;13.52;;
65234;SDS011;51820;48.374;10.930;2024-01-10T04:10:36;38.30;;;14.05;;
65234;SDS011;51820;48.374;10.930;2024-01-10T04:13:04;30.83;;;13.57;;
65234;SDS011;51820;48.374;10.930;2024-01-10T04:15:35;37.45;;;13.93;;
65234;SDS011;51820;48.374;10.930;2024-01-10T04:18:08;35.55;;;12.75;;
65234;SDS011;51820;48.374;10.930;2024-01-10T04:23:35;35.58;;;13.80;;
65234;SDS011;51820;48.374;10.930;2024-01-10T04:26:06;32.60;;;13.27;;
65234;SDS011;51820;48.374;10.930;2024-01-10T04:28:38;36.90;;;13.43;;
65234;SDS011;51820;48.374;10.930;2024-01-10T04:31:36;30.17;;;13.68;;
65234;SDS011;51820;48.374;10.930;2024-01-10T04:34:08;32.75;;;14.07;;
65234;SDS011;51820;48.374;10.930;2024-01-10T04:36:36;34.33;;;13.88;;
65234;SDS011;51820;48.374;10.930;2024-01-10T04:39:06;37.40;;;14.80;;
65234;SDS011;51820;48.374;10.930;2024-01-10T04:41:38;34.42;;;14.07;;
65234;SDS011;51820;48.374;10.930;2024-01-10T04:44:09;35.30;;;13.55;;
65234;SDS011;51820;48.374;10.930;2024-01-10T04:46:39;32.35;;;13.73;;
65234;SDS011;51820;48.374;10.930;2024-01-10T04:49:09;33.80;;;13.57;;
65234;SDS011;51820;48.374;10.930;2024-01-10T04:51:38;33.77;;;14.00;;
65234;SDS011;51820;48.374;10.930;2024-01-10T04:54:08;36.17;;;14.32;;
65234;SDS011;51820;48.374;10.930;2024-01-10T04:56:38;37.97;;;13.73;;
65234;SDS011;51820;48.374;10.930;2024-01-10T04:59:09;37.80;;;13.32;;
65234;SDS011;51820;48.374;10.930;2024-01-10T05:01:40;37.65;;;13.95;;
65234;SDS011;51820;48.374;10.930;2024-01-10T05:04:13;42.13;;;13.90;;
65234;SDS011;51820;48.374;10.930;2024-01-10T05:07:09;38.38;;;14.48;;
65234;SDS011;51820;48.374;10.930;2024-01-10T05:09:37;34.72;;;13.57;;
65234;SDS011;51820;48.374;10.930;2024-01-10T05:12:09;36.33;;;14.93;;
65234;SDS011;51820;48.374;10.930;2024-01-10T05:14:41;36.83;;;13.63;;
65234;SDS011;51820;48.374;10.930;2024-01-10T05:17:12;36.53;;;12.77;;
65234;SDS011;51820;48.374;10.930;2024-01-10T05:19:44;34.80;;;14.15;;
65234;SDS011;51820;48.374;10.930;2024-01-10T05:22:13;38.17;;;15.68;;
65234;SDS011;51820;48.374;10.930;2024-01-10T05:25:11;40.08;;;14.07;;
65234;SDS011;51820;48.374;10.930;2024-01-10T05:27:40;39.85;;;13.73;;
65234;SDS011;51820;48.374;10.930;2024-01-10T05:30:11;37.10;;;14.83;;
65234;SDS011;51820;48.374;10.930;2024-01-10T05:32:43;31.65;;;12.63;;
65234;SDS011;51820;48.374;10.930;2024-01-10T05:35:13;41.08;;;13.52;;
65234;SDS011;51820;48.374;10.930;2024-01-10T05:41:09;37.85;;;13.25;;
65234;SDS011;51820;48.374;10.930;2024-01-10T05:47:43;38.13;;;14.07;;
65234;SDS011;51820;48.374;10.930;2024-01-10T05:56:45;35.45;;;13.73;;
65234;SDS011;51820;48.374;10.930;2024-01-10T06:00:17;39.57;;;14.17;;
65234;SDS011;51820;48.374;10.930;2024-01-10T06:02:37;30.33;;;13.20;;
65234;SDS011;51820;48.374;10.930;2024-01-10T06:05:06;33.58;;;13.00;;
65234;SDS011;51820;48.374;10.930;2024-01-10T06:07:37;32.83;;;12.18;;
65234;SDS011;51820;48.374;10.930;2024-01-10T06:10:05;35.85;;;12.95;;
65234;SDS011;51820;48.374;10.930;2024-01-10T06:12:34;32.73;;;13.80;;
65234;SDS011;51820;48.374;10.930;2024-01-10T06:15:05;49.13;;;16.08;;
65234;SDS011;51820;48.374;10.930;2024-01-10T06:17:37;62.53;;;22.38;;
65234;SDS011;51820;48.374;10.930;2024-01-10T06:20:06;46.38;;;15.80;;
65234;SDS011;51820;48.374;10.930;2024-01-10T06:22:37;37.65;;;13.40;;
65234;SDS011;51820;48.374;10.930;2024-01-10T06:25:08;35.10;;;13.87;;
65234;SDS011;51820;48.374;10.930;2024-01-10T06:27:39;36.05;;;13.38;;
65234;SDS011;51820;48.374;10.930;2024-01-10T06:30:38;36.58;;;13.95;;
65234;SDS011;51820;48.374;10.930;2024-01-10T06:33:06;36.33;;;13.00;;
65234;SDS011;51820;48.374;10.930;2024-01-10T06:35:38;32.30;;;12.93;;
65234;SDS011;51820;48.374;10.930;2024-01-10T06:38:08;30.60;;;11.70;;
65234;SDS011;51820;48.374;10.930;2024-01-10T06:40:37;32.47;;;13.75;;
65234;SDS011;51820;48.374;10.930;2024-01-10T06:43:07;33.45;;;12.85;;
65234;SDS011;51820;48.374;10.930;2024-01-10T06:45:36;31.48;;;12.93;;
65234;SDS011;51820;48.374;10.930;2024-01-10T06:51:38;37.60;;;13.83;;
65234;SDS011;51820;48.374;10.930;2024-01-10T06:54:11;33.22;;;12.95;;
65234;SDS011;51820;48.374;10.930;2024-01-10T06:56:40;31.95;;;12.30;;
65234;SDS011;51820;48.374;10.930;2024-01-10T06:59:13;33.95;;;13.43;;
65234;SDS011;51820;48.374;10.930;2024-01-10T07:02:11;33.75;;;13.05;;
65234;SDS011;51820;48.374;10.930;2024-01-10T07:04:42;41.00;;;13.73;;
65234;SDS011;51820;48.374;10.930;2024-01-10T07:07:43;35.83;;;13.60;;
65234;SDS011;51820;48.374;10.930;2024-01-10T07:10:13;34.40;;;12.00;;
65234;SDS011;51820;48.374;10.930;2024-01-10T07:13:12;35.50;;;13.75;;
65234;SDS011;51820;48.374;10.930;2024-01-10T07:15:41;38.35;;;13.82;;
65234;SDS011;51820;48.374;10.930;2024-01-10T07:18:12;33.97;;;13.60;;
65234;SDS011;51820;48.374;10.930;2024-01-10T07:21:10;35.78;;;14.25;;
65234;SDS011;51820;48.374;10.930;2024-01-10T07:23:46;34.40;;;13.05;;
65234;SDS011;51820;48.374;10.930;2024-01-10T07:26:17;34.42;;;12.80;;
65234;SDS011;51820;48.374;10.930;2024-01-10T07:29:44;37.33;;;14.63;;
65234;SDS011;51820;48.374;10.930;2024-01-10T07:32:13;30.07;;;12.90;;
65234;SDS011;51820;48.374;10.930;2024-01-10T07:35:22;36.45;;;13.73;;
65234;SDS011;51820;48.374;10.930;2024-01-10T07:38:12;35.53;;;13.27;;
65234;SDS011;51820;48.374;10.930;2024-01-10T07:40:43;38.63;;;14.70;;
65234;SDS011;51820;48.374;10.930;2024-01-10T07:43:14;37.97;;;13.85;;
65234;SDS011;51820;48.374;10.930;2024-01-10T07:46:01;35.43;;;13.20;;
65234;SDS011;51820;48.374;10.930;2024-01-10T07:49:10;39.63;;;14.38;;
65234;SDS011;51820;48.374;10.930;2024-01-10T07:51:46;33.10;;;13.23;;
65234;SDS011;51820;48.374;10.930;2024-01-10T07:54:14;34.45;;;13.20;;
65234;SDS011;51820;48.374;10.930;2024-01-10T07:56:47;39.97;;;14.10;;
65234;SDS011;51820;48.374;10.930;2024-01-10T07:59:16;34.23;;;13.30;;
65234;SDS011;51820;48.374;10.930;2024-01-10T08:01:54;38.30;;;13.45;;
65234;SDS011;51820;48.374;10.930;2024-01-10T08:07:47;36.67;;;13.23;;
65234;SDS011;51820;48.374;10.930;2024-01-10T08:13:53;32.87;;;13.73;;
65234;SDS011;51820;48.374;10.930;2024-01-10T08:44:13;31.23;;;11.57;;
65234;SDS011;51820;48.374;10.930;2024-01-10T09:16:42;38.05;;;12.27;;
65234;SDS011;51820;48.374;10.930;2024-01-10T09:19:11;39.58;;;14.10;;
65234;SDS011;51820;48.374;10.930;2024-01-10T09:21:52;39.00;;;13.53;;
65234;SDS011;51820;48.374;10.930;2024-01-10T09:27:40;46.05;;;13.65;;
65234;SDS011;51820;48.374;10.930;2024-01-10T09:30:26;45.92;;;14.70;;
65234;SDS011;51820;48.374;10.930;2024-01-10T09:32:59;39.92;;;13.82;;
65234;SDS011;51820;48.374;10.930;2024-01-10T09:35:30;40.80;;;12.70;;
65234;SDS011;51820;48.374;10.930;2024-01-10T09:38:37;40.70;;;15.20;;
65234;SDS011;51820;48.374;10.930;2024-01-10T09:41:09;43.25;;;14.65;;
65234;SDS011;51820;48.374;10.930;2024-01-10T09:43:52;43.30;;;13.98;;
65234;SDS011;51820;48.374;10.930;2024-01-10T09:46:21;38.95;;;13.50;;
65234;SDS011;51820;48.374;10.930;2024-01-10T09:48:59;43.93;;;14.23;;
65234;SDS011;51820;48.374;10.930;2024-01-10T09:51:32;42.55;;;15.80;;
65234;SDS011;51820;48.374;10.930;2024-01-10T09:54:02;40.08;;;13.95;;
65234;SDS011;51820;48.374;10.930;2024-01-10T09:56:41;41.85;;;15.40;;
65234;SDS011;51820;48.374;10.930;2024-01-10T09:59:09;37.80;;;13.52;;
65234;SDS011;51820;48.374;10.930;2024-01-10T10:01:40;40.90;;;14.20;;
65234;SDS011;51820;48.374;10.930;2024-01-10T10:04:11;39.20;;;13.75;;
65234;SDS011;51820;48.374;10.930;2024-01-10T10:06:40;56.25;;;20.48;;
65234;SDS011;51820;48.374;10.930;2024-01-10T10:09:09;44.00;;;16.35;;
65234;SDS011;51820;48.374;10.930;2024-01-10T10:11:40;40.22;;;14.70;;
65234;SDS011;51820;48.374;10.930;2024-01-10T10:14:14;46.57;;;15.73;;
65234;SDS011;51820;48.374;10.930;2024-01-10T10:16:44;43.55;;;15.20;;
65234;SDS011;51820;48.374;10.930;2024-01-10T10:19:13;46.25;;;15.73;;
65234;SDS011;51820;48.374;10.930;2024-01-10T10:22:07;43.80;;;14.98;;
65234;SDS011;51820;48.374;10.930;2024-01-10T10:24:40;40.22;;;13.95;;
65234;SDS011;51820;48.374;10.930;2024-01-10T10:27:11;41.57;;;15.07;;
65234;SDS011;51820;48.374;10.930;2024-01-10T10:29:41;41.05;;;14.80;;
65234;SDS011;51820;48.374;10.930;2024-01-10T10:32:15;50.40;;;18.17;;
65234;SDS011;51820;48.374;10.930;2024-01-10T10:34:45;42.20;;;17.27;;
65234;SDS011;51820;48.374;10.930;2024-01-10T10:41:35;40.40;;;14.33;;
65234;SDS011;51820;48.374;10.930;2024-01-10T10:44:05;42.00;;;16.00;;
65234;SDS011;51820;48.374;10.930;2024-01-10T10:46:37;50.50;;;17.50;;
65234;SDS011;51820;48.374;10.930;2024-01-10T10:53:36;48.00;;;16.33;;
65234;SDS011;51820;48.374;10.930;2024-01-10T10:56:13;38.77;;;14.00;;
65234;SDS011;51820;48.374;10.930;2024-01-10T10:59:08;46.35;;;16.27;;
65234;SDS011;51820;48.374;10.930;2024-01-10T11:01:39;43.88;;;16.23;;
65234;SDS011;51820;48.374;10.930;2024-01-10T11:04:37;40.13;;;14.90;;
65234;SDS011;51820;48.374;10.930;2024-01-10T11:07:40;46.88;;;16.20;;
65234;SDS011;51820;48.374;10.930;2024-01-10T11:10:39;39.87;;;15.67;;
65234;SDS011;51820;48.374;10.930;2024-01-10T11:13:45;43.45;;;16.35;;
65234;SDS011;51820;48.374;10.930;2024-01-10T11:24:40;49.08;;;17.00;;
65234;SDS011;51820;48.374;10.930;2024-01-10T11:42:12;37.85;;;15.40;;
65234;SDS011;51820;48.374;10.930;2024-01-10T12:19:45;43.47;;;15.38;;
65234;SDS011;51820;48.374;10.930;2024-01-10T12:29:10;49.13;;;16.87;;
65234;SDS011;51820;48.374;10.930;2024-01-10T12:42:47;47.38;;;16.50;;
65234;SDS011;51820;48.374;10.930;2024-01-10T12:52:51;44.80;;;15.77;;
65234;SDS011;51820;48.374;10.930;2024-01-10T12:58:55;45.00;;;16.73;;
65234;SDS011;51820;48.374;10.930;2024-01-10T13:02:17;45.17;;;15.40;;
65234;SDS011;51820;48.374;10.930;2024-01-10T13:05:39;44.05;;;15.98;;
65234;SDS011;51820;48.374;10.930;2024-01-10T13:08:39;45.30;;;16.95;;
65234;SDS011;51820;48.374;10.930;2024-01-10T13:11:09;40.75;;;15.43;;
65234;SDS011;51820;48.374;10.930;2024-01-10T13:13:38;49.80;;;16.23;;
65234;SDS011;51820;48.374;10.930;2024-01-10T13:16:10;44.17;;;14.97;;
65234;SDS011;51820;48.374;10.930;2024-01-10T13:18:39;46.70;;;16.17;;
65234;SDS011;51820;48.374;10.930;2024-01-10T13:21:08;50.22;;;17.13;;
65234;SDS011;51820;48.374;10.930;2024-01-10T13:23:39;41.15;;;16.73;;
65234;SDS011;51820;48.374;10.930;2024-01-10T13:26:13;45.55;;;17.17;;
65234;SDS011;51820;48.374;10.930;2024-01-10T13:28:56;42.23;;;15.67;;
65234;SDS011;51820;48.374;10.930;2024-01-10T13:31:37;39.35;;;15.30;;
65234;SDS011;51820;48.374;10.930;2024-01-10T13:34:06;49.38;;;18.10;;
65234;SDS011;51820;48.374;10.930;2024-01-10T13:36:38;47.35;;;17.77;;
65234;SDS011;51820;48.374;10.930;2024-01-10T13:39:10;38.13;;;15.50;;
65234;SDS011;51820;48.374;10.930;2024-01-10T13:41:45;46.47;;;16.83;;
65234;SDS011;51820;48.374;10.930;2024-01-10T13:44:20;42.58;;;15.63;;
65234;SDS011;51820;48.374;10.930;2024-01-10T13:46:51;45.17;;;15.75;;
65234;SDS011;51820;48.374;10.930;2024-01-10T13:49:20;52.53;;;19.00;;
65234;SDS011;51820;48.374;10.930;2024-01-10T13:52:02;50.88;;;18.08;;
65234;SDS011;51820;48.374;10.930;2024-01-10T13:54:38;50.53;;;18.27;;
65234;SDS011;51820;48.374;10.930;2024-01-10T13:57:08;50.83;;;16.48;;
65234;SDS011;51820;48.374;10.930;2024-01-10T13:59:36;44.22;;;17.35;;
65234;SDS011;51820;48.374;10.930;2024-01-10T14:02:08;51.78;;;18.08;;
65234;SDS011;51820;48.374;10.930;2024-01-10T14:04:39;42.58;;;15.60;;
65234;SDS011;51820;48.374;10.930;2024-01-10T14:07:12;41.37;;;15.57;;
65234;SDS011;51820;48.374;10.930;2024-01-10T14:09:42;42.40;;;15.38;;
65234;SDS011;51820;48.374;10.930;2024-01-10T14:12:11;40.97;;;15.10;;
65234;SDS011;51820;48.374;10.930;2024-01-10T14:14:40;45.30;;;16.35;;
65234;SDS011;51820;48.374;10.930;2024-01-10T14:17:09;43.47;;;15.93;;
65234;SDS011;51820;48.374;10.930;2024-01-10T14:19:40;45.47;;;15.47;;
65234;SDS011;51820;48.374;10.930;2024-01-10T14:22:13;42.53;;;16.45;;
65234;SDS011;51820;48.374;10.930;2024-01-10T14:24:57;44.08;;;16.65;;
65234;SDS011;51820;48.374;10.930;2024-01-10T14:27:28;51.03;;;21.08;;
65234;SDS011;51820;48.374;10.930;2024-01-10T14:30:00;50.53;;;19.55;;
65234;SDS011;51820;48.374;10.930;2024-01-10T14:32:35;48.40;;;17.07;;
65234;SDS011;51820;48.374;10.930;2024-01-10T14:35:04;41.65;;;15.60;;
65234;SDS011;51820;48.374;10.930;2024-01-10T14:37:33;41.47;;;15.48;;
65234;SDS011;51820;48.374;10.930;2024-01-10T14:40:05;37.50;;;14.75;;
65234;SDS011;51820;48.374;10.930;2024-01-10T14:42:34;43.20;;;15.68;;
65234;SDS011;51820;48.374;10.930;2024-01-10T14:45:03;45.80;;;17.57;;
65234;SDS011;51820;48.374;10.930;2024-01-10T14:47:31;68.63;;;23.88;;
65234;SDS011;51820;48.374;10.930;2024-01-10T14:50:00;51.65;;;17.85;;
65234;SDS011;51820;48.374;10.930;2024-01-10T14:52:30;48.85;;;17.45;;
65234;SDS011;51820;48.374;10.930;2024-01-10T14:54:58;37.80;;;14.18;;
65234;SDS011;51820;48.374;10.930;2024-01-10T14:57:31;39.07;;;15.97;;
65234;SDS011;51820;48.374;10.930;2024-01-10T15:00:00;43.10;;;15.45;;
65234;SDS011;51820;48.374;10.930;2024-01-10T15:02:30;44.60;;;16.08;;
65234;SDS011;51820;48.374;10.930;2024-01-10T15:05:00;41.80;;;14.93;;
65234;SDS011;51820;48.374;10.930;2024-01-10T15:07:29;48.17;;;15.82;;
65234;SDS011;51820;48.374;10.930;2024-01-10T15:09:58;45.60;;;15.30;;
65234;SDS011;51820;48.374;10.930;2024-01-10T15:12:31;44.20;;;15.38;;
65234;SDS011;51820;48.374;10.930;2024-01-10T15:14:59;41.20;;;15.23;;
65234;SDS011;51820;48.374;10.930;2024-01-10T15:17:28;47.22;;;15.80;;
65234;SDS011;51820;48.374;10.930;2024-01-10T15:19:57;45.83;;;15.18;;
65234;SDS011;51820;48.374;10.930;2024-01-10T15:22:26;46.70;;;16.03;;
65234;SDS011;51820;48.374;10.930;2024-01-10T15:24:57;46.53;;;15.40;;
65234;SDS011;51820;48.374;10.930;2024-01-10T15:27:27;46.22;;;15.43;;
65234;SDS011;51820;48.374;10.930;2024-01-10T15:30:04;45.60;;;16.23;;
65234;SDS011;51820;48.374;10.930;2024-01-10T15:32:42;42.47;;;15.52;;
65234;SDS011;51820;48.374;10.930;2024-01-10T15:35:15;40.80;;;14.93;;
65234;SDS011;51820;48.374;10.930;2024-01-10T15:37:46;44.38;;;15.13;;
65234;SDS011;51820;48.374;10.930;2024-01-10T15:40:15;43.55;;;16.20;;
65234;SDS011;51820;48.374;10.930;2024-01-10T15:42:44;36.80;;;13.50;;
65234;SDS011;51820;48.374;10.930;2024-01-10T15:45:14;40.97;;;14.55;;
65234;SDS011;51820;48.374;10.930;2024-01-10T15:47:43;49.37;;;15.37;;
65234;SDS011;51820;48.374;10.930;2024-01-10T15:50:29;42.70;;;15.60;;
65234;SDS011;51820;48.374;10.930;2024-01-10T15:52:58;43.17;;;13.48;;
65234;SDS011;51820;48.374;10.930;2024-01-10T15:55:33;39.75;;;14.80;;
65234;SDS011;51820;48.374;10.930;2024-01-10T15:58:08;40.95;;;13.73;;
65234;SDS011;51820;48.374;10.930;2024-01-10T16:00:42;40.43;;;14.57;;
65234;SDS011;51820;48.374;10.930;2024-01-10T16:03:13;41.35;;;15.05;;
65234;SDS011;51820;48.374;10.930;2024-01-10T16:05:45;43.22;;;14.82;;
65234;SDS011;51820;48.374;10.930;2024-01-10T16:08:34;43.28;;;15.15;;
65234;SDS011;51820;48.374;10.930;2024-01-10T16:11:22;43.08;;;15.30;;
65234;SDS011;51820;48.374;10.930;2024-01-10T16:13:53;46.97;;;16.17;;
65234;SDS011;51820;48.374;10.930;2024-01-10T16:16:30;47.72;;;15.75;;
65234;SDS011;51820;48.374;10.930;2024-01-10T16:19:02;44.88;;;14.43;;
65234;SDS011;51820;48.374;10.930;2024-01-10T16:21:35;48.13;;;15.95;;
65234;SDS011;51820;48.374;10.930;2024-01-10T16:24:06;43.70;;;14.95;;
65234;SDS011;51820;48.374;10.930;2024-01-10T16:26:38;42.77;;;15.40;;
65234;SDS011;51820;48.374;10.930;2024-01-10T16:29:07;46.85;;;16.17;;
65234;SDS011;51820;48.374;10.930;2024-01-10T16:31:46;45.70;;;16.70;;
65234;SDS011;51820;48.374;10.930;2024-01-10T16:34:20;51.05;;;16.88;;
65234;SDS011;51820;48.374;10.930;2024-01-10T16:36:49;46.30;;;15.40;;
65234;SDS011;51820;48.374;10.930;2024-01-10T16:39:27;40.50;;;16.57;;
65234;SDS011;51820;48.374;10.930;2024-01-10T16:42:01;51.38;;;15.70;;
65234;SDS011;51820;48.374;10.930;2024-01-10T16:44:30;41.50;;;15.23;;
65234;SDS011;51820;48.374;10.930;2024-01-10T16:46:59;48.25;;;16.50;;
65234;SDS011;51820;48.374;10.930;2024-01-10T16:49:29;46.08;;;15.40;;
65234;SDS011;51820;48.374;10.930;2024-01-10T16:52:03;48.00;;;15.30;;
65234;SDS011;51820;48.374;10.930;2024-01-10T16:54:32;48.10;;;16.02;;
65234;SDS011;51820;48.374;10.930;2024-01-10T16:57:00;44.47;;;16.80;;
65234;SDS011;51820;48.374;10.930;2024-01-10T16:59:30;42.28;;;15.48;;
65234;SDS011;51820;48.374;10.930;2024-01-10T17:02:00;45.85;;;15.48;;
65234;SDS011;51820;48.374;10.930;2024-01-10T17:04:28;45.93;;;16.27;;
65234;SDS011;51820;48.374;10.930;2024-01-10T17:06:58;46.67;;;15.95;;
65234;SDS011;51820;48.374;10.930;2024-01-10T17:09:27;49.28;;;17.50;;
65234;SDS011;51820;48.374;10.930;2024-01-10T17:11:55;41.15;;;15.07;;
65234;SDS011;51820;48.374;10.930;2024-01-10T17:18:34;43.93;;;14.70;;
65234;SDS011;51820;48.374;10.930;2024-01-10T17:21:02;50.60;;;15.68;;
65234;SDS011;51820;48.374;10.930;2024-01-10T17:23:31;47.47;;;16.45;;
65234;SDS011;51820;48.374;10.930;2024-01-10T17:26:10;47.75;;;15.88;;
65234;SDS011;51820;48.374;10.930;2024-01-10T17:29:20;47.50;;;14.90;;
65234;SDS011;51820;48.374;10.930;2024-01-10T17:31:49;45.50;;;15.07;;
65234;SDS011;51820;48.374;10.930;2024-01-10T17:34:19;47.88;;;16.60;;
65234;SDS011;51820;48.374;10.930;2024-01-10T17:36:49;47.72;;;16.63;;
65234;SDS011;51820;48.374;10.930;2024-01-10T17:39:18;44.75;;;15.70;;
65234;SDS011;51820;48.374;10.930;2024-01-10T17:41:46;52.95;;;18.25;;
65234;SDS011;51820;48.374;10.930;2024-01-10T17:44:15;48.90;;;15.63;;
65234;SDS011;51820;48.374;10.930;2024-01-10T17:46:44;47.55;;;17.00;;
65234;SDS011;51820;48.374;10.930;2024-01-10T17:49:12;51.80;;;17.23;;
65234;SDS011;51820;48.374;10.930;2024-01-10T17:51:45;40.65;;;14.32;;
65234;SDS011;51820;48.374;10.930;2024-01-10T17:54:16;45.47;;;16.48;;
65234;SDS011;51820;48.374;10.930;2024-01-10T17:56:44;47.47;;;14.97;;
65234;SDS011;51820;48.374;10.930;2024-01-10T17:59:13;47.45;;;16.77;;
65234;SDS011;51820;48.374;10.930;2024-01-10T18:01:41;45.88;;;16.75;;
65234;SDS011;51820;48.374;10.930;2024-01-10T18:04:12;51.15;;;17.83;;
65234;SDS011;51820;48.374;10.930;2024-01-10T18:06:40;53.25;;;16.40;;
65234;SDS011;51820;48.374;10.930;2024-01-10T18:09:11;49.93;;;17.40;;
65234;SDS011;51820;48.374;10.930;2024-01-10T18:11:40;49.08;;;16.90;;
65234;SDS011;51820;48.374;10.930;2024-01-10T18:14:09;48.70;;;17.40;;
65234;SDS011;51820;48.374;10.930;2024-01-10T18:16:38;48.63;;;17.02;;
65234;SDS011;51820;48.374;10.930;2024-01-10T18:19:06;57.40;;;17.17;;
65234;SDS011;51820;48.374;10.930;2024-01-10T18:21:35;52.03;;;15.27;;
65234;SDS011;51820;48.374;10.930;2024-01-10T18:24:04;51.20;;;15.43;;
65234;SDS011;51820;48.374;10.930;2024-01-10T18:26:34;54.05;;;16.35;;
65234;SDS011;51820;48.374;10.930;2024-01-10T18:29:02;45.55;;;15.02;;
65234;SDS011;51820;48.374;10.930;2024-01-10T18:31:31;46.55;;;15.00;;
65234;SDS011;51820;48.374;10.930;2024-01-10T18:34:00;52.03;;;16.13;;
65234;SDS011;51820;48.374;10.930;2024-01-10T18:36:29;47.13;;;15.95;;